METAR AND TAF INFORMATION
METAR FOR KBVS
ADDS - METARS form results

(1822 UTC 24 September 2020)
Data provider http://aviationweather.gov/metar/data/
 
METAR text: KBVS 241815Z AUTO 20006G13KT 10SM OVC018 17/14 A2992 RMK A01
Conditions at: KBVS (BURLINGTON/MT V , WA, US) observed 1815 UTC 24 September 2020
Temperature: 17.0°C (63°F)
Dewpoint: 14.0°C (57°F) [RH = 82%]
Pressure (altimeter): 29.92 inches Hg (1013.3 mb)
Winds: from the SSW (200 degrees) at 7 MPH (6 knots; 3.1 m/s)
gusting to 15 MPH (13 knots; 6.7 m/s)
Visibility: 10 or more miles (16+ km)
Ceiling: 1800 feet AGL
Clouds: overcast cloud deck at 1800 feet AGL
Weather: automated observation with no human augmentation;
there may or may not be significant weather present at this time

METAR text: KBVS 241755Z AUTO 16009G15KT 130V190 10SM BKN015 BKN020 OVC080 17/15 A2990 RMK A01
Conditions at: KBVS (BURLINGTON/MT V , WA, US) observed 1755 UTC 24 September 2020
Temperature: 17.0°C (63°F)
Dewpoint: 15.0°C (59°F) [RH = 88%]
Pressure (altimeter): 29.90 inches Hg (1012.6 mb)
Winds: from the SSE (160 degrees) at 10 MPH (9 knots; 4.6 m/s)
gusting to 17 MPH (15 knots; 7.7 m/s)
Visibility: 10 or more miles (16+ km)
Ceiling: 1500 feet AGL
Clouds: broken clouds at 1500 feet AGL
broken clouds at 2000 feet AGL
overcast cloud deck at 8000 feet AGL
Weather: automated observation with no human augmentation;
there may or may not be significant weather present at this time

METAR text: KBVS 241735Z AUTO 15009KT 9SM BKN014 BKN060 OVC080 16/14 A2990 RMK A01
Conditions at: KBVS (BURLINGTON/MT V , WA, US) observed 1735 UTC 24 September 2020
Temperature: 16.0°C (61°F)
Dewpoint: 14.0°C (57°F) [RH = 88%]
Pressure (altimeter): 29.90 inches Hg (1012.6 mb)
Winds: from the SSE (150 degrees) at 10 MPH (9 knots; 4.6 m/s)
Visibility: 9 miles (14 km)
Ceiling: 1400 feet AGL
Clouds: broken clouds at 1400 feet AGL
broken clouds at 6000 feet AGL
overcast cloud deck at 8000 feet AGL
Weather: automated observation with no human augmentation;
there may or may not be significant weather present at this time

 AIRPORT MAP

 RUNWAY INFORMATION
Runway 04 Runway length 3000 ft Runway width 60 ft
Runway elevation 84 ft Runway displaced threshold 0 ft Runway heading 56
Runway 22 Runway length 3000 ft Runway width 60 ft
Runway elevation 97 ft Runway displaced threshold 0 ft Runway heading 236
Runway 10 Runway length 5477 ft Runway width 100 ft
Runway elevation 144 ft Runway displaced threshold 0 ft Runway heading 126
Runway 28 Runway length 5477 ft Runway width 100 ft
Runway elevation 98 ft Runway displaced threshold 0 ft Runway heading 306

 AIRPORT FREQUENCIES
Type A/D Name WHIDBEY AP Frequency 120.7 MHZ
Type AWOS Name AWOS 3 Frequency 121.125 MHZ
Type UNIC Name CTAF/UNICO Frequency 123.075 MHZ

 AIRPORT NEAR NAVIGATION AIDS



Powered by Virtual Airlines Manager [v2.6.2]

Impressum | Datenschutz